createdAt,value
2023-03-02T00:02:22.566Z,95767.72
2023-03-02T00:04:55.017Z,95768.99
2023-03-02T00:07:28.698Z,95772.15
2023-03-02T00:09:56.818Z,95769.34
2023-03-02T00:12:28.229Z,95762.50
2023-03-02T00:14:56.574Z,95760.20
2023-03-02T00:17:28.463Z,95761.58
2023-03-02T00:20:10.472Z,95760.45
2023-03-02T00:22:40.601Z,95764.12
2023-03-02T00:25:10.099Z,95755.58
2023-03-02T00:27:38.409Z,95756.20
2023-03-02T00:30:08.994Z,95752.95
2023-03-02T00:32:37.845Z,95750.57
2023-03-02T00:35:06.365Z,95755.31
2023-03-02T00:37:38.315Z,95754.14
2023-03-02T00:40:09.656Z,95753.98
2023-03-02T00:42:37.990Z,95753.20
2023-03-02T00:45:07.240Z,95745.29
2023-03-02T00:52:41.177Z,95738.52
2023-03-02T00:55:09.848Z,95736.83
2023-03-02T00:57:37.955Z,95740.04
2023-03-02T01:00:07.494Z,95737.10
2023-03-02T01:02:44.422Z,95735.42
2023-03-02T01:05:16.220Z,95729.45
2023-03-02T01:07:44.986Z,95724.86
2023-03-02T01:10:13.533Z,95717.77
2023-03-02T01:12:43.032Z,95715.38
2023-03-02T01:15:11.377Z,95714.13
2023-03-02T01:17:41.317Z,95716.67
2023-03-02T01:20:11.073Z,95709.33
2023-03-02T01:22:39.301Z,95716.08
2023-03-02T01:25:07.672Z,95715.19
2023-03-02T01:27:35.875Z,95710.17
2023-03-02T01:30:04.772Z,95707.26
2023-03-02T01:32:32.997Z,95703.58
2023-03-02T01:35:01.023Z,95703.27
2023-03-02T01:37:29.104Z,95699.56
2023-03-02T01:39:57.096Z,95693.47
2023-03-02T01:42:25.162Z,95692.63
2023-03-02T01:44:57.348Z,95693.63
2023-03-02T01:47:31.407Z,95696.08
2023-03-02T01:50:16.009Z,95698.09
2023-03-02T01:52:45.224Z,95691.25
2023-03-02T01:55:17.106Z,95689.48
2023-03-02T01:57:48.175Z,95692.34
2023-03-02T02:00:21.873Z,95687.27
2023-03-02T02:02:52.388Z,95687.98
2023-03-02T02:05:27.356Z,95689.09
2023-03-02T02:07:55.621Z,95694.77
2023-03-02T02:10:23.895Z,95693.56
2023-03-02T02:12:52.488Z,95696.09
2023-03-02T02:15:20.556Z,95696.20
2023-03-02T02:17:48.678Z,95695.16
2023-03-02T02:20:38.163Z,95697.50
2023-03-02T02:23:27.116Z,95696.23
2023-03-02T02:26:22.072Z,95692.11
2023-03-02T02:29:12.429Z,95691.94
2023-03-02T02:32:23.076Z,95689.83
2023-03-02T02:35:07.635Z,95694.96
2023-03-02T02:37:42.469Z,95689.54
2023-03-02T02:40:49.546Z,95686.39
2023-03-02T02:43:20.854Z,95685.41
2023-03-02T02:45:53.980Z,95680.11
2023-03-02T02:48:25.389Z,95681.84
2023-03-02T02:51:00.572Z,95678.16
2023-03-02T02:53:47.838Z,95671.80
2023-03-02T02:56:17.476Z,95676.83
2023-03-02T02:58:53.877Z,95677.96
2023-03-02T03:01:26.760Z,95680.83
2023-03-02T03:04:00.784Z,95682.17
2023-03-02T03:06:38.581Z,95682.01
2023-03-02T03:09:07.950Z,95683.91
2023-03-02T03:11:45.049Z,95680.86
2023-03-02T03:14:17.043Z,95683.49
2023-03-02T03:16:48.363Z,95684.50
2023-03-02T03:19:23.708Z,95680.42
2023-03-02T03:21:58.676Z,95681.88
2023-03-02T03:24:29.625Z,95686.02
2023-03-02T03:26:59.274Z,95683.52
2023-03-02T03:29:31.222Z,95684.84
2023-03-02T03:32:02.906Z,95683.00
2023-03-02T03:34:31.936Z,95676.23
2023-03-02T03:37:01.945Z,95679.15
2023-03-02T03:39:33.000Z,95678.67
2023-03-02T03:42:01.493Z,95674.48
2023-03-02T03:44:30.562Z,95677.27
2023-03-02T03:46:59.895Z,95684.15
2023-03-02T03:49:29.100Z,95683.86
2023-03-02T03:51:57.734Z,95689.61
2023-03-02T03:54:26.180Z,95681.76
2023-03-02T03:56:54.227Z,95683.33
2023-03-02T03:59:24.334Z,95680.58
2023-03-02T04:01:58.953Z,95682.20
2023-03-02T04:04:33.774Z,95684.27
2023-03-02T04:07:04.587Z,95683.08
2023-03-02T04:09:37.946Z,95679.52
2023-03-02T04:12:08.814Z,95675.04
2023-03-02T04:14:37.324Z,95675.78
2023-03-02T04:17:07.166Z,95672.11
2023-03-02T04:19:38.256Z,95673.11
2023-03-02T04:22:06.746Z,95671.77
2023-03-02T04:24:35.102Z,95673.11
2023-03-02T04:27:04.911Z,95670.16
2023-03-02T04:29:35.833Z,95668.60
2023-03-02T04:32:05.508Z,95671.92
2023-03-02T04:34:34.775Z,95661.86
2023-03-02T04:37:03.903Z,95661.48
2023-03-02T04:39:32.142Z,95662.52
2023-03-02T04:42:00.413Z,95665.98
2023-03-02T04:44:28.517Z,95668.75
2023-03-02T04:46:56.695Z,95667.27
2023-03-02T04:49:24.767Z,95664.38
2023-03-02T04:51:53.252Z,95665.63
2023-03-02T04:54:25.136Z,95664.20
2023-03-02T04:56:54.737Z,95668.50
2023-03-02T04:59:26.268Z,95666.23
2023-03-02T05:02:00.364Z,95670.65
2023-03-02T05:04:29.156Z,95669.20
2023-03-02T05:06:57.373Z,95673.30
2023-03-02T05:09:31.125Z,95666.91
2023-03-02T05:12:01.730Z,95670.04
2023-03-02T05:14:29.918Z,95667.52
2023-03-02T05:16:58.659Z,95669.52
2023-03-02T05:19:26.968Z,95669.81
2023-03-02T05:21:56.541Z,95671.11
2023-03-02T05:24:24.882Z,95672.77
2023-03-02T05:26:52.895Z,95669.21
2023-03-02T05:29:20.938Z,95673.76
2023-03-02T05:31:50.056Z,95675.64
2023-03-02T05:34:19.013Z,95677.05
2023-03-02T05:36:46.965Z,95674.05
2023-03-02T05:39:15.122Z,95674.30
2023-03-02T05:41:43.323Z,95676.60
2023-03-02T05:44:12.858Z,95676.65
2023-03-02T05:46:41.939Z,95682.91
2023-03-02T05:49:10.769Z,95687.25
2023-03-02T05:51:38.925Z,95685.77
2023-03-02T05:54:06.956Z,95684.85
2023-03-02T05:56:35.562Z,95685.95
2023-03-02T05:59:03.841Z,95690.40
2023-03-02T06:01:32.280Z,95690.80
2023-03-02T06:04:00.934Z,95691.77
2023-03-02T06:06:30.063Z,95693.21
2023-03-02T06:08:58.975Z,95696.81
2023-03-02T06:11:27.238Z,95701.02
2023-03-02T06:13:55.400Z,95694.25
2023-03-02T06:16:23.643Z,95699.96
2023-03-02T06:18:51.947Z,95704.50
2023-03-02T06:21:19.983Z,95700.65
2023-03-02T06:23:48.049Z,95708.91
2023-03-02T06:26:16.200Z,95705.95
2023-03-02T06:28:52.469Z,95706.95
2023-03-02T06:31:21.906Z,95709.27
2023-03-02T06:33:50.131Z,95707.97
2023-03-02T06:36:18.258Z,95708.66
2023-03-02T06:38:46.537Z,95705.38
2023-03-02T06:41:15.237Z,95700.92
2023-03-02T06:43:44.103Z,95696.29
2023-03-02T06:46:12.769Z,95695.71
2023-03-02T06:48:41.140Z,95697.67
2023-03-02T06:51:09.249Z,95699.96
2023-03-02T06:53:37.526Z,95701.73
2023-03-02T06:56:06.365Z,95697.77
2023-03-02T06:58:34.387Z,95696.05
2023-03-02T07:01:02.744Z,95698.16
2023-03-02T07:03:31.015Z,95693.21
2023-03-02T07:05:59.270Z,95687.89
2023-03-02T07:08:27.598Z,95691.69
2023-03-02T07:10:55.966Z,95690.75
2023-03-02T07:13:24.357Z,95690.80
2023-03-02T07:15:53.639Z,95687.06
2023-03-02T07:18:22.293Z,95682.25
2023-03-02T07:20:50.360Z,95682.20
2023-03-02T07:23:18.462Z,95681.56
2023-03-02T07:25:50.373Z,95678.55
2023-03-02T07:28:19.230Z,95677.59
2023-03-02T07:43:56.748Z,95668.29
2023-03-02T07:46:24.941Z,95661.56
2023-03-02T07:48:54.166Z,95662.73
2023-03-02T07:51:22.308Z,95661.14
2023-03-02T07:53:50.424Z,95655.98
2023-03-02T07:56:18.860Z,95656.29
2023-03-02T07:58:47.813Z,95654.80
2023-03-02T08:01:16.046Z,95658.52
2023-03-02T08:03:44.236Z,95663.02
2023-03-02T08:06:13.165Z,95659.83
2023-03-02T08:08:41.408Z,95659.92
2023-03-02T08:11:12.490Z,95662.67
2023-03-02T08:13:41.311Z,95661.00
2023-03-02T08:16:12.499Z,95658.12
2023-03-02T08:18:41.789Z,95658.88
2023-03-02T08:21:19.375Z,95659.48
2023-03-02T08:23:48.412Z,95658.44
2023-03-02T08:26:17.695Z,95659.24
2023-03-02T08:28:47.346Z,95661.08
2023-03-02T08:31:16.427Z,95662.98
2023-03-02T08:33:46.045Z,95662.71
2023-03-02T08:36:16.622Z,95662.19
2023-03-02T08:38:45.817Z,95659.00
2023-03-02T08:41:17.859Z,95665.06
2023-03-02T08:43:46.621Z,95663.50
2023-03-02T08:46:17.253Z,95663.92
2023-03-02T08:48:46.161Z,95662.48
2023-03-02T08:51:17.821Z,95657.47
2023-03-02T08:53:48.475Z,95660.23
2023-03-02T08:56:26.144Z,95658.89
2023-03-02T08:58:58.176Z,95653.42
2023-03-02T09:01:30.048Z,95654.00
2023-03-02T09:04:00.929Z,95654.55
2023-03-02T09:06:31.126Z,95655.25
2023-03-02T09:08:59.320Z,95653.46
2023-03-02T09:11:27.667Z,95654.59
2023-03-02T09:13:56.483Z,95652.73
2023-03-02T09:16:26.066Z,95653.24
2023-03-02T09:18:55.791Z,95648.69
2023-03-02T09:21:24.374Z,95647.48
2023-03-02T09:23:55.781Z,95646.36
2023-03-02T09:26:25.988Z,95645.36
2023-03-02T09:28:55.140Z,95644.79
2023-03-02T09:31:23.892Z,95645.90
2023-03-02T09:33:52.005Z,95645.67
2023-03-02T09:36:24.177Z,95643.80
2023-03-02T09:38:53.931Z,95640.14
2023-03-02T09:41:49.190Z,95635.08
2023-03-02T09:44:54.799Z,95636.98
2023-03-02T09:47:36.368Z,95636.17
2023-03-02T09:50:30.920Z,95637.58
2023-03-02T09:53:30.603Z,95636.38
2023-03-02T09:56:02.635Z,95638.08
2023-03-02T09:58:40.508Z,95634.66
2023-03-02T10:01:28.954Z,95635.50
2023-03-02T10:04:21.022Z,95638.66
2023-03-02T10:07:01.537Z,95635.01
2023-03-02T10:09:29.718Z,95629.41
2023-03-02T10:12:20.193Z,95629.46
2023-03-02T10:15:10.919Z,95626.22
2023-03-02T10:18:07.077Z,95621.80
2023-03-02T10:20:46.989Z,95618.70
2023-03-02T10:23:34.013Z,95617.70
2023-03-02T10:26:26.362Z,95616.33
2023-03-02T10:29:23.926Z,95617.80
2023-03-02T10:32:04.342Z,95615.54
2023-03-02T10:34:38.070Z,95611.71
2023-03-02T10:37:14.186Z,95607.71
2023-03-02T10:39:42.591Z,95608.16
2023-03-02T10:42:18.550Z,95604.89
2023-03-02T10:44:51.653Z,95601.24
2023-03-02T10:47:27.951Z,95600.92
2023-03-02T10:49:58.094Z,95598.88
2023-03-02T10:52:28.929Z,95593.52
2023-03-02T10:55:06.122Z,95595.14
2023-03-02T10:57:37.430Z,95594.13
2023-03-02T11:00:17.881Z,95592.00
2023-03-02T11:02:57.160Z,95586.97
2023-03-02T11:05:36.497Z,95584.69
2023-03-02T11:08:26.737Z,95586.53
2023-03-02T11:11:00.871Z,95582.73
2023-03-02T11:13:42.223Z,95581.49
2023-03-02T11:16:18.560Z,95582.83
2023-03-02T11:18:56.038Z,95584.11
2023-03-02T11:21:46.048Z,95579.50
2023-03-02T11:24:18.741Z,95577.98
2023-03-02T11:27:03.143Z,95578.62
2023-03-02T11:29:38.320Z,95578.89
2023-03-02T11:32:21.564Z,95575.80
2023-03-02T11:34:54.797Z,95574.73
2023-03-02T11:37:34.878Z,95577.73
2023-03-02T11:40:16.754Z,95576.54
2023-03-02T11:42:46.006Z,95573.46
2023-03-02T11:45:14.138Z,95575.80
2023-03-02T11:47:57.495Z,95573.23
2023-03-02T11:50:31.343Z,95566.64
2023-03-02T11:53:04.011Z,95566.77
2023-03-02T11:55:40.955Z,95563.28
2023-03-02T11:58:21.982Z,95559.36
2023-03-02T12:00:51.374Z,95556.43
2023-03-02T12:03:32.162Z,95555.80
2023-03-02T12:06:02.712Z,95553.30
2023-03-02T12:08:38.532Z,95555.29
2023-03-02T12:11:27.171Z,95554.77
2023-03-02T12:13:55.263Z,95556.38
2023-03-02T12:16:41.154Z,95553.77
2023-03-02T12:19:38.933Z,95554.23
2023-03-02T12:22:12.421Z,95556.98
2023-03-02T12:24:44.073Z,95559.02
2023-03-02T12:27:15.555Z,95557.61
2023-03-02T12:29:43.917Z,95552.85
2023-03-02T12:32:35.144Z,95552.63
2023-03-02T12:35:12.292Z,95549.98
2023-03-02T12:37:53.318Z,95550.83
2023-03-02T12:40:33.252Z,95548.98
2023-03-02T12:43:20.219Z,95544.77
2023-03-02T12:46:03.838Z,95540.89
2023-03-02T12:48:45.892Z,95535.07
2023-03-02T12:51:22.337Z,95530.98
2023-03-02T12:54:01.812Z,95531.33
2023-03-02T12:56:30.505Z,95527.65
2023-03-02T12:58:58.613Z,95529.92
2023-03-02T13:01:31.914Z,95524.06
2023-03-02T13:04:00.803Z,95523.55
2023-03-02T13:06:34.984Z,95516.36
2023-03-02T13:09:03.698Z,95519.89
2023-03-02T13:11:37.079Z,95519.45
2023-03-02T13:14:29.102Z,95515.86
2023-03-02T13:17:06.042Z,95520.67
2023-03-02T13:19:34.446Z,95516.72
2023-03-02T13:22:04.712Z,95519.48
2023-03-02T13:24:44.733Z,95515.15
2023-03-02T13:27:21.805Z,95515.34
2023-03-02T13:29:52.961Z,95515.27
2023-03-02T13:32:36.683Z,95515.94
2023-03-02T13:35:26.724Z,95509.69
2023-03-02T13:38:03.153Z,95508.89
2023-03-02T13:40:38.279Z,95511.61
2023-03-02T13:43:23.443Z,95506.32
2023-03-02T13:46:02.997Z,95505.23
2023-03-02T13:48:33.919Z,95502.48
2023-03-02T13:51:25.971Z,95498.08
2023-03-02T13:54:03.298Z,95495.58
2023-03-02T13:56:38.252Z,95491.52
2023-03-02T13:59:19.615Z,95483.82
2023-03-02T14:01:48.029Z,95481.55
2023-03-02T14:04:21.645Z,95478.29
2023-03-02T14:06:52.347Z,95475.91
2023-03-02T14:09:21.687Z,95474.08
2023-03-02T14:11:56.003Z,95471.54
2023-03-02T14:14:28.183Z,95470.84
2023-03-02T14:16:56.994Z,95467.90
2023-03-02T14:19:25.238Z,95465.09
2023-03-02T14:21:53.517Z,95461.48
2023-03-02T14:24:21.896Z,95464.36
2023-03-02T14:26:50.390Z,95459.90
2023-03-02T14:29:25.546Z,95455.29
2023-03-02T14:31:55.614Z,95456.63
2023-03-02T14:34:24.015Z,95458.09
2023-03-02T14:36:54.958Z,95463.61
2023-03-02T14:39:37.173Z,95457.54
2023-03-02T14:42:10.976Z,95461.50
2023-03-02T14:44:39.778Z,95455.16
2023-03-02T14:47:10.199Z,95456.63
2023-03-02T14:49:39.191Z,95460.26
2023-03-02T14:52:23.667Z,95462.09
2023-03-02T14:54:56.666Z,95460.16
2023-03-02T14:57:27.459Z,95458.81
2023-03-02T14:59:56.634Z,95457.26
2023-03-02T15:02:26.756Z,95461.20
2023-03-02T15:04:57.639Z,95460.65
2023-03-02T15:07:28.325Z,95459.02
2023-03-02T15:09:58.097Z,95459.52
2023-03-02T15:12:26.676Z,95463.13
2023-03-02T15:14:54.957Z,95461.66
2023-03-02T15:17:23.244Z,95461.98
2023-03-02T15:19:51.516Z,95460.11
2023-03-02T15:22:19.896Z,95458.73
2023-03-02T15:24:48.398Z,95455.63
2023-03-02T15:27:16.756Z,95454.54
2023-03-02T15:29:48.350Z,95456.56
2023-03-02T15:32:17.326Z,95456.61
2023-03-02T15:34:45.695Z,95457.33
2023-03-02T15:37:14.580Z,95455.50
2023-03-02T15:39:42.958Z,95462.30
2023-03-02T15:42:13.703Z,95464.71
2023-03-02T15:44:42.299Z,95461.33
2023-03-02T15:47:11.184Z,95465.69
2023-03-02T15:49:39.558Z,95467.69
2023-03-02T15:52:08.040Z,95470.19
2023-03-02T15:54:36.422Z,95467.01
2023-03-02T15:57:05.114Z,95472.41
2023-03-02T15:59:33.492Z,95472.83
2023-03-02T16:02:02.589Z,95474.58
2023-03-02T16:04:32.484Z,95476.91
2023-03-02T16:07:01.438Z,95479.89
2023-03-02T16:09:31.196Z,95473.98
2023-03-02T16:11:59.597Z,95473.48
2023-03-02T16:14:27.882Z,95475.23
2023-03-02T16:16:56.166Z,95473.84
2023-03-02T16:19:24.469Z,95472.55
2023-03-02T16:21:52.621Z,95475.36
2023-03-02T16:24:21.480Z,95476.48
2023-03-02T16:26:51.168Z,95475.36
2023-03-02T16:29:19.413Z,95474.25
2023-03-02T16:31:47.748Z,95470.10
2023-03-02T16:34:17.664Z,95471.23
2023-03-02T16:36:46.108Z,95465.35
2023-03-02T16:39:15.313Z,95469.38
2023-03-02T16:41:44.399Z,95474.48
2023-03-02T16:44:14.685Z,95480.63
2023-03-02T16:46:43.805Z,95479.75
2023-03-02T16:49:14.158Z,95482.63
2023-03-02T16:51:43.365Z,95484.67
2023-03-02T16:54:16.658Z,95486.63
2023-03-02T16:56:47.702Z,95487.88
2023-03-02T16:59:16.790Z,95485.64
2023-03-02T17:01:45.458Z,95490.21
2023-03-02T17:04:14.022Z,95490.83
2023-03-02T17:06:59.856Z,95490.55
2023-03-02T17:09:29.698Z,95491.45
2023-03-02T17:11:58.272Z,95500.42
2023-03-02T17:14:27.801Z,95504.34
2023-03-02T17:16:59.439Z,95504.86
2023-03-02T17:19:29.637Z,95505.52
2023-03-02T17:21:59.772Z,95508.88
2023-03-02T17:24:29.117Z,95510.55
2023-03-02T17:26:57.632Z,95508.69
2023-03-02T17:29:25.864Z,95504.42
2023-03-02T17:31:54.632Z,95511.70
2023-03-02T17:34:23.060Z,95507.35
2023-03-02T17:36:51.434Z,95503.95
2023-03-02T17:39:19.916Z,95508.31
2023-03-02T17:41:48.120Z,95508.30
2023-03-02T17:44:16.285Z,95509.27
2023-03-02T17:46:45.988Z,95507.91
2023-03-02T17:49:14.271Z,95505.21
2023-03-02T17:51:42.570Z,95501.92
2023-03-02T17:54:11.139Z,95502.54
2023-03-02T17:56:39.423Z,95504.83
2023-03-02T17:59:07.806Z,95504.51
2023-03-02T18:01:36.198Z,95502.41
2023-03-02T18:04:05.081Z,95502.44
2023-03-02T18:06:34.299Z,95501.61
2023-03-02T18:09:02.709Z,95501.01
2023-03-02T18:11:31.269Z,95502.73
2023-03-02T18:13:59.675Z,95502.21
2023-03-02T18:16:29.466Z,95507.80
2023-03-02T18:18:58.023Z,95504.38
2023-03-02T18:21:26.652Z,95501.45
2023-03-02T18:23:55.237Z,95502.78
2023-03-02T18:26:23.657Z,95508.27
2023-03-02T18:28:52.208Z,95506.14
2023-03-02T18:31:20.914Z,95506.17
2023-03-02T18:33:49.401Z,95508.29
2023-03-02T18:36:17.868Z,95504.63
2023-03-02T18:38:46.055Z,95507.30
2023-03-02T18:41:14.641Z,95505.67
2023-03-02T18:43:43.546Z,95506.54
2023-03-02T18:46:19.669Z,95508.61
2023-03-02T18:48:49.750Z,95512.25
2023-03-02T18:51:19.908Z,95512.84
2023-03-02T18:53:48.999Z,95512.45
2023-03-02T18:56:18.865Z,95513.36
2023-03-02T18:58:48.784Z,95519.47
2023-03-02T19:01:17.836Z,95517.08
2023-03-02T19:03:46.274Z,95523.23
2023-03-02T19:06:15.173Z,95523.25
2023-03-02T19:08:44.072Z,95521.02
2023-03-02T19:11:12.448Z,95528.33
2023-03-02T19:13:41.758Z,95527.33
2023-03-02T19:16:10.041Z,95525.26
2023-03-02T19:18:38.736Z,95526.19
2023-03-02T19:21:07.209Z,95525.34
2023-03-02T19:23:35.708Z,95531.16
2023-03-02T19:26:05.008Z,95529.98
2023-03-02T19:28:35.240Z,95525.23
2023-03-02T19:31:07.035Z,95532.33
2023-03-02T19:33:36.299Z,95528.84
2023-03-02T19:36:05.906Z,95532.76
2023-03-02T19:38:38.091Z,95539.20
2023-03-02T19:41:06.567Z,95536.75
2023-03-02T19:43:35.255Z,95536.69
2023-03-02T19:46:05.125Z,95535.11
2023-03-02T19:48:36.015Z,95536.15
2023-03-02T19:51:05.590Z,95533.92
2023-03-02T19:53:34.926Z,95530.33
2023-03-02T19:56:11.776Z,95530.58
2023-03-02T19:58:54.106Z,95529.38
2023-03-02T20:01:26.089Z,95530.92
2023-03-02T20:03:56.100Z,95530.69
2023-03-02T20:06:30.597Z,95533.92
2023-03-02T20:09:01.412Z,95531.28
2023-03-02T20:11:31.461Z,95532.83
2023-03-02T20:14:02.213Z,95532.45
2023-03-02T20:16:32.500Z,95533.08
2023-03-02T20:19:02.369Z,95533.05
2023-03-02T20:21:32.561Z,95534.96
2023-03-02T20:24:01.536Z,95534.64
2023-03-02T20:26:29.860Z,95535.20
2023-03-02T20:28:59.731Z,95535.22
2023-03-02T20:31:28.318Z,95532.59
2023-03-02T20:33:57.220Z,95534.70
2023-03-02T20:36:32.480Z,95531.91
2023-03-02T20:39:08.591Z,95532.39
2023-03-02T20:41:37.012Z,95527.80
2023-03-02T20:44:05.929Z,95528.63
2023-03-02T20:46:38.541Z,95528.98
2023-03-02T20:49:09.763Z,95527.38
2023-03-02T20:51:39.275Z,95522.55
2023-03-02T20:54:07.732Z,95522.16
2023-03-02T20:56:35.776Z,95523.56
2023-03-02T20:59:03.980Z,95520.95
2023-03-02T21:01:32.390Z,95520.27
2023-03-02T21:04:00.433Z,95511.89
2023-03-02T21:06:29.769Z,95516.04
2023-03-02T21:09:00.313Z,95507.78
2023-03-02T21:11:29.636Z,95506.66
2023-03-02T21:13:59.546Z,95501.70
2023-03-02T21:16:32.328Z,95505.53
2023-03-02T21:19:00.572Z,95504.05
2023-03-02T21:21:40.827Z,95500.35
2023-03-02T21:24:13.021Z,95501.11
2023-03-02T21:26:41.704Z,95500.78
2023-03-02T21:29:11.950Z,95500.55
2023-03-02T21:31:42.532Z,95497.13
2023-03-02T21:34:16.051Z,95495.92
2023-03-02T21:36:53.898Z,95495.77
2023-03-02T21:39:23.756Z,95492.42
2023-03-02T21:41:52.918Z,95490.86
2023-03-02T21:44:21.744Z,95489.56
2023-03-02T21:46:51.027Z,95488.56
2023-03-02T21:49:21.674Z,95483.98
2023-03-02T21:51:50.145Z,95483.30
2023-03-02T21:54:18.346Z,95486.55
2023-03-02T21:56:46.665Z,95485.54
2023-03-02T21:59:14.772Z,95484.73
2023-03-02T22:01:44.140Z,95480.80
2023-03-02T22:04:12.463Z,95480.63
2023-03-02T22:06:40.451Z,95473.10
2023-03-02T22:09:08.755Z,95475.14
2023-03-02T22:11:38.553Z,95474.71
2023-03-02T22:14:15.289Z,95473.37
2023-03-02T22:16:47.493Z,95471.10
2023-03-02T22:19:30.730Z,95470.66
2023-03-02T22:22:01.211Z,95470.38
2023-03-02T22:24:32.216Z,95476.16
2023-03-02T22:27:21.580Z,95472.80
2023-03-02T22:29:51.186Z,95471.34
2023-03-02T22:32:21.288Z,95471.05
2023-03-02T22:34:55.630Z,95467.71
2023-03-02T22:37:29.315Z,95469.99
2023-03-02T22:40:01.860Z,95468.48
2023-03-02T22:42:30.882Z,95467.44
2023-03-02T22:44:58.932Z,95467.20
2023-03-02T22:47:27.388Z,95466.85
2023-03-02T22:50:00.588Z,95467.44
2023-03-02T22:52:39.404Z,95465.20
2023-03-02T22:55:41.520Z,95469.96
2023-03-02T22:58:27.803Z,95466.55
2023-03-02T23:01:01.214Z,95466.83
2023-03-02T23:03:44.357Z,95464.88
2023-03-02T23:06:33.144Z,95464.28
2023-03-02T23:09:03.988Z,95465.60
2023-03-02T23:11:38.262Z,95465.19
2023-03-02T23:14:21.282Z,95464.41
2023-03-02T23:17:00.365Z,95462.61
2023-03-02T23:19:30.793Z,95465.23
2023-03-02T23:21:59.552Z,95462.71
2023-03-02T23:24:27.666Z,95465.52
2023-03-02T23:26:55.899Z,95467.15
2023-03-02T23:29:24.543Z,95461.89
2023-03-02T23:31:52.701Z,95462.40
2023-03-02T23:34:20.902Z,95456.64
2023-03-02T23:36:49.285Z,95454.41
2023-03-02T23:39:17.795Z,95455.17
2023-03-02T23:41:45.919Z,95450.88
2023-03-02T23:44:14.016Z,95449.68
2023-03-02T23:46:42.243Z,95450.02
2023-03-02T23:49:10.898Z,95445.19
2023-03-02T23:51:39.092Z,95442.04
2023-03-02T23:54:08.091Z,95443.80
2023-03-02T23:56:36.598Z,95443.15
2023-03-02T23:59:05.291Z,95440.20
